Time;durP1;ratioP1;P1;durP2;ratioP2;P2;SDS_P1;SDS_P2;PMS_P1;PMS_P2;Temp;Humidity;BMP_temperature;BMP_pressure;BME280_temperature;BME280_humidity;BME280_pressure;Samples;Min_cycle;Max_cycle;Signal;HPM_P1;HPM_P2
2023/01/21 00:01:38;;;;;;;37.92;26.75;;;;;;;;;;5010109;28;20541;-57
2023/01/21 00:04:04;;;;;;;44.72;28.23;;;;;;;;;;5008374;28;20037;-55
2023/01/21 00:06:30;;;;;;;40.35;28.30;;;;;;;;;;4993273;28;20029;-50
2023/01/21 00:08:58;;;;;;;46.53;28.02;;;;;;;;;;4992350;28;20033;-57
2023/01/21 00:11:24;;;;;;;48.30;29.67;;;;;;;;;;5009122;28;20033;-58
2023/01/21 00:13:50;;;;;;;50.05;30.58;;;;;;;;;;5009375;28;20045;-58
2023/01/21 00:16:16;;;;;;;50.45;30.05;;;;;;;;;;5013289;28;20482;-57
2023/01/21 00:18:42;;;;;;;46.22;28.40;;;;;;;;;;5016450;28;20034;-57
2023/01/21 00:21:08;;;;;;;42.90;28.05;;;;;;;;;;5013796;28;20429;-54
2023/01/21 00:23:34;;;;;;;47.05;29.63;;;;;;;;;;5009944;28;20092;-57
2023/01/21 00:26:01;;;;;;;43.15;28.52;;;;;;;;;;5009207;28;20398;-55
2023/01/21 00:28:31;;;;;;;44.83;30.30;;;;;;;;;;4998165;28;20030;-57
2023/01/21 00:31:00;;;;;;;48.95;28.77;;;;;;;;;;4972625;28;20077;-55
2023/01/21 00:33:27;;;;;;;44.72;28.92;;;;;;;;;;4972480;28;20033;-56
2023/01/21 00:36:03;;;;;;;46.47;28.98;;;;;;;;;;4972781;28;20023;-58
2023/01/21 00:38:30;;;;;;;47.13;29.77;;;;;;;;;;5000565;23;20080;-59
2023/01/21 00:41:00;;;;;;;47.40;30.80;;;;;;;;;;5006936;28;20033;-63
2023/01/21 00:43:26;;;;;;;48.00;31.95;;;;;;;;;;5006732;28;20022;-59
2023/01/21 00:45:52;;;;;;;48.08;30.92;;;;;;;;;;5006978;28;20031;-59
2023/01/21 00:48:18;;;;;;;44.97;29.88;;;;;;;;;;4992080;28;20403;-59
2023/01/21 00:50:44;;;;;;;48.70;30.77;;;;;;;;;;4990705;28;20029;-59
2023/01/21 00:53:10;;;;;;;51.25;31.45;;;;;;;;;;4991530;28;20065;-59
2023/01/21 00:55:36;;;;;;;52.67;31.80;;;;;;;;;;4991869;28;20022;-61
2023/01/21 00:58:02;;;;;;;51.95;30.55;;;;;;;;;;4991706;28;20084;-59
2023/01/21 01:00:28;;;;;;;47.50;30.75;;;;;;;;;;4991780;28;20395;-58
2023/01/21 01:02:54;;;;;;;62.30;33.88;;;;;;;;;;4991617;28;20027;-61
2023/01/21 01:05:21;;;;;;;49.67;31.88;;;;;;;;;;4991343;28;20026;-59
2023/01/21 01:07:49;;;;;;;52.65;32.47;;;;;;;;;;4990478;28;20030;-59
2023/01/21 01:10:15;;;;;;;53.83;32.25;;;;;;;;;;4992075;28;20467;-56
2023/01/21 01:12:41;;;;;;;54.45;32.35;;;;;;;;;;4991726;28;20122;-57
2023/01/21 01:15:07;;;;;;;50.95;29.80;;;;;;;;;;4992554;28;20105;-61
2023/01/21 01:17:33;;;;;;;49.92;30.50;;;;;;;;;;4993835;28;20026;-60
2023/01/21 01:19:59;;;;;;;48.67;30.33;;;;;;;;;;4995183;28;20117;-61
2023/01/21 01:22:25;;;;;;;47.97;31.02;;;;;;;;;;4995144;28;20394;-61
2023/01/21 01:24:51;;;;;;;52.05;33.67;;;;;;;;;;4993447;28;20055;-61
2023/01/21 01:27:17;;;;;;;53.05;32.65;;;;;;;;;;4994913;28;20465;-59
2023/01/21 01:29:43;;;;;;;51.95;33.05;;;;;;;;;;4995061;28;20387;-59
2023/01/21 01:32:10;;;;;;;53.88;32.33;;;;;;;;;;4993682;28;20022;-59
2023/01/21 01:34:36;;;;;;;58.42;33.00;;;;;;;;;;4994625;28;20026;-59
2023/01/21 01:37:02;;;;;;;54.72;32.92;;;;;;;;;;4994726;28;20376;-59
2023/01/21 01:39:28;;;;;;;55.47;33.97;;;;;;;;;;4993471;28;20138;-61
2023/01/21 01:41:55;;;;;;;51.58;31.20;;;;;;;;;;4993496;28;20077;-59
2023/01/21 01:44:39;;;;;;;53.88;32.65;;;;;;;;;;4994408;28;20027;-61
2023/01/21 01:47:06;;;;;;;53.25;32.10;;;;;;;;;;4993291;28;20073;-61
2023/01/21 01:49:32;;;;;;;61.90;35.33;;;;;;;;;;4994598;28;20041;-59
2023/01/21 01:52:00;;;;;;;58.45;35.38;;;;;;;;;;4994661;28;20435;-58
2023/01/21 01:54:26;;;;;;;;;;;;;;;;;;4994796;28;20125;-61
2023/01/21 01:56:54;;;;;;;56.33;31.45;;;;;;;;;;4994448;28;19949;-62
2023/01/21 01:59:20;;;;;;;67.05;34.47;;;;;;;;;;4994366;28;20113;-56
2023/01/21 02:01:46;;;;;;;55.70;31.90;;;;;;;;;;4994461;28;20026;-57
2023/01/21 02:04:15;;;;;;;56.72;33.08;;;;;;;;;;4994004;28;20077;-57
2023/01/21 02:06:42;;;;;;;62.38;33.53;;;;;;;;;;4993102;28;20030;-56
2023/01/21 02:09:08;;;;;;;53.85;32.42;;;;;;;;;;4994069;28;20031;-53
2023/01/21 02:11:35;;;;;;;58.35;33.28;;;;;;;;;;4994060;28;20486;-58
2023/01/21 02:14:02;;;;;;;56.85;33.22;;;;;;;;;;4993990;28;20372;-54
2023/01/21 02:16:34;;;;;;;53.37;32.63;;;;;;;;;;4994123;28;20435;-58
2023/01/21 02:19:00;;;;;;;52.17;31.48;;;;;;;;;;4994010;28;20140;-59
2023/01/21 02:21:45;;;;;;;57.22;33.58;;;;;;;;;;4992669;28;20022;-59
2023/01/21 02:24:11;;;;;;;55.42;31.38;;;;;;;;;;4993647;28;20394;-60
2023/01/21 02:26:57;;;;;;;52.60;32.42;;;;;;;;;;4993094;28;20026;-58
2023/01/21 02:29:23;;;;;;;59.13;32.00;;;;;;;;;;4993779;28;20157;-61
2023/01/21 02:32:04;;;;;;;57.45;33.25;;;;;;;;;;4993877;28;20081;-58
2023/01/21 02:34:49;;;;;;;56.70;33.33;;;;;;;;;;4992250;28;20026;-61
2023/01/21 02:37:18;;;;;;;55.20;31.80;;;;;;;;;;4993472;28;20036;-60
2023/01/21 02:39:44;;;;;;;49.60;31.52;;;;;;;;;;4992681;28;20023;-59
2023/01/21 02:42:20;;;;;;;50.03;30.70;;;;;;;;;;5009186;28;20479;-61
2023/01/21 02:45:04;;;;;;;54.03;32.83;;;;;;;;;;5011970;28;20029;-57
2023/01/21 02:47:30;;;;;;;56.25;32.90;;;;;;;;;;5013209;28;20390;-61
2023/01/21 02:50:08;;;;;;;57.83;33.20;;;;;;;;;;5012082;28;20118;-60
2023/01/21 02:52:34;;;;;;;56.07;30.87;;;;;;;;;;5011920;28;20018;-58
2023/01/21 02:55:00;;;;;;;56.30;33.22;;;;;;;;;;5011386;28;20060;-60
2023/01/21 02:57:44;;;;;;;54.33;32.28;;;;;;;;;;5012901;28;20037;-60
2023/01/21 03:00:25;;;;;;;66.75;34.42;;;;;;;;;;5011570;28;20112;-60
2023/01/21 03:03:10;;;;;;;59.95;33.53;;;;;;;;;;5011487;28;20036;-61
2023/01/21 03:05:35;;;;;;;62.60;33.45;;;;;;;;;;5012748;28;20022;-61
2023/01/21 03:08:17;;;;;;;66.53;37.42;;;;;;;;;;5012672;28;20057;-58
2023/01/21 03:10:47;;;;;;;60.88;33.38;;;;;;;;;;5012828;28;20055;-59
2023/01/21 03:16:55;;;;;;;69.43;35.03;;;;;;;;;;5011563;28;20018;-57
2023/01/21 03:18:51;;;;;;;63.42;34.55;;;;;;;;;;5012779;28;20092;-59
2023/01/21 03:21:20;;;;;;;67.40;36.97;;;;;;;;;;5012608;28;20093;-59
2023/01/21 03:23:48;;;;;;;73.32;35.97;;;;;;;;;;5010969;28;20052;-62
2023/01/21 03:26:17;;;;;;;69.55;35.95;;;;;;;;;;5011065;28;20470;-61
2023/01/21 03:28:49;;;;;;;69.95;36.00;;;;;;;;;;5011045;28;20505;-60
2023/01/21 03:31:18;;;;;;;68.50;37.50;;;;;;;;;;5012385;28;20045;-58
2023/01/21 03:33:47;;;;;;;72.20;34.70;;;;;;;;;;5012036;28;20026;-57
2023/01/21 03:36:31;;;;;;;64.25;33.55;;;;;;;;;;5012227;28;20508;-58
2023/01/21 03:38:59;;;;;;;60.50;34.47;;;;;;;;;;5010597;28;20530;-59
2023/01/21 03:41:30;;;;;;;67.60;34.85;;;;;;;;;;5011044;28;20022;-59
2023/01/21 03:43:56;;;;;;;81.03;37.45;;;;;;;;;;5011950;28;20155;-59
2023/01/21 03:46:34;;;;;;;74.88;36.72;;;;;;;;;;5011766;28;20408;-59
2023/01/21 03:49:05;;;;;;;67.97;35.33;;;;;;;;;;5012023;28;20121;-61
2023/01/21 03:51:37;;;;;;;64.05;33.90;;;;;;;;;;5011993;28;20049;-59
2023/01/21 03:54:03;;;;;;;70.65;35.38;;;;;;;;;;5011889;28;20025;-60
2023/01/21 03:56:29;;;;;;;66.22;35.20;;;;;;;;;;5010852;28;20085;-58
2023/01/21 03:58:55;;;;;;;67.25;33.92;;;;;;;;;;5012444;28;20030;-60
2023/01/21 04:01:21;;;;;;;70.05;35.00;;;;;;;;;;5012539;28;20048;-57
2023/01/21 04:03:48;;;;;;;57.50;34.38;;;;;;;;;;5011099;28;20030;-56
2023/01/21 04:06:18;;;;;;;63.30;36.92;;;;;;;;;;5011116;28;20438;-52
2023/01/21 04:08:44;;;;;;;64.45;35.33;;;;;;;;;;5012128;28;20022;-55
2023/01/21 04:11:10;;;;;;;61.88;35.08;;;;;;;;;;5011463;28;20109;-58
2023/01/21 04:13:36;;;;;;;71.20;37.20;;;;;;;;;;5011464;28;20099;-57
2023/01/21 04:16:03;;;;;;;64.80;35.92;;;;;;;;;;5010366;28;20037;-55
2023/01/21 04:18:29;;;;;;;63.53;34.28;;;;;;;;;;5010277;28;20061;-59
2023/01/21 04:20:55;;;;;;;68.40;35.65;;;;;;;;;;5011888;28;20478;-57
2023/01/21 04:23:21;;;;;;;73.00;35.58;;;;;;;;;;5010018;28;20034;-58
2023/01/21 04:25:47;;;;;;;70.68;34.22;;;;;;;;;;5011540;28;20060;-58
2023/01/21 04:28:13;;;;;;;64.22;33.42;;;;;;;;;;5011920;28;20022;-57
2023/01/21 04:30:39;;;;;;;67.93;35.70;;;;;;;;;;5010265;28;20133;-59
2023/01/21 04:33:05;;;;;;;62.55;32.88;;;;;;;;;;5010202;28;20494;-61
2023/01/21 04:35:31;;;;;;;67.30;35.35;;;;;;;;;;5011574;28;20026;-61
2023/01/21 04:37:57;;;;;;;64.18;35.63;;;;;;;;;;5009928;28;20426;-61
2023/01/21 04:40:23;;;;;;;66.28;35.20;;;;;;;;;;5011642;28;20105;-62
2023/01/21 04:42:49;;;;;;;64.47;34.50;;;;;;;;;;5011674;28;20494;-60
2023/01/21 04:45:15;;;;;;;67.15;34.47;;;;;;;;;;5011311;28;20054;-60
2023/01/21 04:47:42;;;;;;;68.40;34.97;;;;;;;;;;5009860;28;20026;-57
2023/01/21 04:50:09;;;;;;;65.78;33.53;;;;;;;;;;5011482;28;20120;-62
2023/01/21 04:52:35;;;;;;;60.90;35.67;;;;;;;;;;5013985;28;20037;-60
2023/01/21 04:55:01;;;;;;;68.68;33.03;;;;;;;;;;5015119;28;20022;-56
2023/01/21 04:57:27;;;;;;;57.65;33.83;;;;;;;;;;5015119;28;20033;-58
2023/01/21 04:59:53;;;;;;;66.00;35.88;;;;;;;;;;5013956;28;20021;-59
2023/01/21 05:02:19;;;;;;;61.63;36.05;;;;;;;;;;5015281;28;20030;-58
2023/01/21 05:04:45;;;;;;;61.95;33.53;;;;;;;;;;5014572;28;20080;-59
2023/01/21 05:07:11;;;;;;;75.78;34.85;;;;;;;;;;5015176;28;20112;-60
2023/01/21 05:09:37;;;;;;;69.63;34.60;;;;;;;;;;5015223;28;20029;-59
2023/01/21 05:12:03;;;;;;;58.45;32.30;;;;;;;;;;5014644;28;20121;-57
2023/01/21 05:14:29;;;;;;;71.82;34.78;;;;;;;;;;5015067;28;20535;-59
2023/01/21 05:16:55;;;;;;;64.57;33.88;;;;;;;;;;5013718;28;20068;-60
2023/01/21 05:19:21;;;;;;;61.22;32.92;;;;;;;;;;5014758;28;20145;-56
2023/01/21 05:21:47;;;;;;;62.00;33.55;;;;;;;;;;5014647;28;20018;-59
2023/01/21 05:24:13;;;;;;;62.75;33.63;;;;;;;;;;5014458;28;20348;-59
2023/01/21 05:26:39;;;;;;;73.13;33.88;;;;;;;;;;5014971;28;20053;-59
2023/01/21 05:29:05;;;;;;;66.25;37.10;;;;;;;;;;5014657;28;20053;-55
2023/01/21 05:31:31;;;;;;;76.20;36.35;;;;;;;;;;5014612;28;20089;-53
2023/01/21 05:33:57;;;;;;;76.78;36.10;;;;;;;;;;5014416;28;20121;-55
2023/01/21 05:36:23;;;;;;;63.95;35.47;;;;;;;;;;5014639;28;20049;-54
2023/01/21 05:38:49;;;;;;;69.32;37.78;;;;;;;;;;5014397;28;20176;-57
2023/01/21 05:41:15;;;;;;;60.20;35.42;;;;;;;;;;5014446;28;20065;-59
2023/01/21 05:43:41;;;;;;;65.13;36.45;;;;;;;;;;5012868;28;20113;-58
2023/01/21 05:46:07;;;;;;;63.88;36.83;;;;;;;;;;5014289;28;20401;-62
2023/01/21 05:48:33;;;;;;;64.78;36.92;;;;;;;;;;5014217;28;20112;-60
2023/01/21 05:50:59;;;;;;;78.00;36.72;;;;;;;;;;5014201;28;20096;-59
2023/01/21 05:53:25;;;;;;;71.70;39.08;;;;;;;;;;5013952;28;20026;-60
2023/01/21 05:55:55;;;;;;;72.97;40.42;;;;;;;;;;5014232;28;20036;-59
2023/01/21 05:58:21;;;;;;;69.55;37.83;;;;;;;;;;5014427;28;20372;-61
2023/01/21 06:00:47;;;;;;;67.32;35.58;;;;;;;;;;5012910;28;20061;-59
2023/01/21 06:03:14;;;;;;;73.15;35.92;;;;;;;;;;5012267;28;20502;-62
2023/01/21 06:05:40;;;;;;;71.82;34.15;;;;;;;;;;5013760;28;20040;-56
2023/01/21 06:08:06;;;;;;;68.68;36.80;;;;;;;;;;5013990;28;20022;-62
2023/01/21 06:10:32;;;;;;;74.05;36.97;;;;;;;;;;5012853;28;20402;-61
2023/01/21 06:12:58;;;;;;;63.25;36.40;;;;;;;;;;5013774;28;20026;-56
2023/01/21 06:15:25;;;;;;;61.28;34.85;;;;;;;;;;5013557;28;20026;-59
2023/01/21 06:17:51;;;;;;;72.07;37.42;;;;;;;;;;5012487;28;20128;-59
2023/01/21 06:20:17;;;;;;;62.05;35.80;;;;;;;;;;5012383;28;20234;-60
2023/01/21 06:22:44;;;;;;;63.42;33.72;;;;;;;;;;5012132;28;20030;-59
2023/01/21 06:25:10;;;;;;;59.25;37.60;;;;;;;;;;5011859;28;20026;-61
2023/01/21 06:27:37;;;;;;;71.35;36.60;;;;;;;;;;5012146;28;20052;-60
2023/01/21 06:30:06;;;;;;;60.92;34.88;;;;;;;;;;5013442;28;20026;-61
2023/01/21 06:32:32;;;;;;;66.45;35.88;;;;;;;;;;5012177;28;20510;-61
2023/01/21 06:34:58;;;;;;;62.88;33.67;;;;;;;;;;5011712;28;20125;-60
2023/01/21 06:39:53;;;;;;;66.43;34.15;;;;;;;;;;5030142;28;20053;-53
2023/01/21 06:42:19;;;;;;;64.45;37.17;;;;;;;;;;5033043;28;20025;-56
2023/01/21 06:44:45;;;;;;;69.57;37.40;;;;;;;;;;5032654;28;20030;-54
2023/01/21 06:47:11;;;;;;;62.58;35.63;;;;;;;;;;5033090;28;20036;-58
2023/01/21 06:49:37;;;;;;;64.25;33.92;;;;;;;;;;5033100;28;20048;-56
2023/01/21 06:52:03;;;;;;;61.55;34.08;;;;;;;;;;5032833;28;20048;-55
2023/01/21 06:54:29;;;;;;;64.65;35.92;;;;;;;;;;5032673;28;20076;-53
2023/01/21 06:56:55;;;;;;;67.97;33.97;;;;;;;;;;5032822;28;20025;-52
2023/01/21 06:59:21;;;;;;;61.08;35.72;;;;;;;;;;5033006;28;20438;-53
2023/01/21 07:01:47;;;;;;;58.28;35.10;;;;;;;;;;5032861;28;20083;-54
2023/01/21 07:04:13;;;;;;;58.55;34.03;;;;;;;;;;5032385;28;20464;-56
2023/01/21 07:06:40;;;;;;;62.88;36.63;;;;;;;;;;5032618;28;20040;-58
2023/01/21 07:09:06;;;;;;;67.75;34.88;;;;;;;;;;5032606;28;20033;-54
2023/01/21 07:11:33;;;;;;;59.92;35.97;;;;;;;;;;5031352;28;20050;-54
2023/01/21 07:13:59;;;;;;;63.22;34.90;;;;;;;;;;5031728;28;20029;-53
2023/01/21 07:16:25;;;;;;;63.78;34.25;;;;;;;;;;5032271;28;20037;-57
2023/01/21 07:18:51;;;;;;;60.60;36.00;;;;;;;;;;5032447;28;20040;-57
2023/01/21 07:21:17;;;;;;;57.30;33.63;;;;;;;;;;5032362;28;20033;-53
2023/01/21 07:23:43;;;;;;;63.65;34.25;;;;;;;;;;5032123;28;20025;-56
2023/01/21 07:26:09;;;;;;;62.38;33.40;;;;;;;;;;5032130;28;20026;-57
2023/01/21 07:28:36;;;;;;;66.28;34.40;;;;;;;;;;5030520;28;20519;-54
2023/01/21 07:31:03;;;;;;;59.92;32.63;;;;;;;;;;5032048;28;20040;-57
2023/01/21 07:33:29;;;;;;;63.92;33.38;;;;;;;;;;5031704;28;20029;-58
2023/01/21 07:35:55;;;;;;;64.07;35.33;;;;;;;;;;5032230;28;20029;-55
2023/01/21 07:38:21;;;;;;;61.60;33.83;;;;;;;;;;5031869;28;20449;-58
2023/01/21 07:40:48;;;;;;;64.97;32.80;;;;;;;;;;5031925;28;20026;-55
2023/01/21 07:43:14;;;;;;;61.38;33.13;;;;;;;;;;5031789;28;20107;-55
2023/01/21 07:45:40;;;;;;;65.53;36.97;;;;;;;;;;5030634;28;20025;-57
2023/01/21 07:48:06;;;;;;;63.22;35.47;;;;;;;;;;5031897;28;20022;-57
2023/01/21 07:50:32;;;;;;;69.75;35.72;;;;;;;;;;5029659;28;20017;-54
2023/01/21 07:53:01;;;;;;;55.92;34.55;;;;;;;;;;5027243;28;20489;-52
2023/01/21 07:55:28;;;;;;;65.15;34.13;;;;;;;;;;5018888;28;20021;-53
2023/01/21 07:57:58;;;;;;;70.07;34.40;;;;;;;;;;5030236;28;20025;-57
2023/01/21 08:00:25;;;;;;;59.53;32.13;;;;;;;;;;5019207;28;20394;-57
2023/01/21 08:02:53;;;;;;;64.70;30.58;;;;;;;;;;5010371;28;20030;-56
2023/01/21 08:05:19;;;;;;;58.72;31.30;;;;;;;;;;5011477;28;20061;-57
2023/01/21 08:07:45;;;;;;;63.75;36.13;;;;;;;;;;5012643;28;20026;-56
2023/01/21 08:10:11;;;;;;;57.50;31.83;;;;;;;;;;5031181;28;20018;-57
2023/01/21 08:12:37;;;;;;;65.25;32.22;;;;;;;;;;5031456;28;20018;-54
2023/01/21 08:15:03;;;;;;;63.88;33.22;;;;;;;;;;5030997;28;20466;-55
2023/01/21 08:17:29;;;;;;;62.80;33.95;;;;;;;;;;5031232;28;20083;-57
2023/01/21 08:19:55;;;;;;;62.75;33.03;;;;;;;;;;5031493;28;20033;-55
2023/01/21 08:22:22;;;;;;;69.75;35.90;;;;;;;;;;5030370;28;20103;-54
2023/01/21 08:24:47;;;;;;;63.72;32.35;;;;;;;;;;5027791;28;20021;-53
2023/01/21 08:27:13;;;;;;;59.63;32.15;;;;;;;;;;5011403;28;20033;-57
2023/01/21 08:29:39;;;;;;;65.40;31.77;;;;;;;;;;5011298;28;20437;-57
2023/01/21 08:32:05;;;;;;;61.25;34.50;;;;;;;;;;5011385;28;20044;-57
2023/01/21 08:34:32;;;;;;;56.95;30.55;;;;;;;;;;5011116;28;20084;-53
2023/01/21 08:36:58;;;;;;;63.42;33.08;;;;;;;;;;5011323;28;20022;-58
2023/01/21 08:39:24;;;;;;;62.47;32.42;;;;;;;;;;5011127;28;20038;-65
2023/01/21 08:41:50;;;;;;;60.47;32.38;;;;;;;;;;5011284;28;20049;-66
2023/01/21 08:44:16;;;;;;;56.20;32.63;;;;;;;;;;5011084;28;20026;-65
2023/01/21 08:46:42;;;;;;;58.13;33.05;;;;;;;;;;5009708;28;20026;-66
2023/01/21 08:49:08;;;;;;;58.55;31.13;;;;;;;;;;5011338;28;20030;-64
2023/01/21 08:51:34;;;;;;;59.80;32.10;;;;;;;;;;5009799;28;20041;-65
2023/01/21 08:54:00;;;;;;;56.75;30.02;;;;;;;;;;5027636;28;20462;-66
2023/01/21 08:56:26;;;;;;;54.72;30.77;;;;;;;;;;5030919;28;20026;-64
2023/01/21 08:58:56;;;;;;;50.00;30.00;;;;;;;;;;5031012;28;20103;-65
2023/01/21 09:01:23;;;;;;;57.20;30.83;;;;;;;;;;5030924;28;20034;-64
2023/01/21 09:03:53;;;;;;;54.42;28.98;;;;;;;;;;5030592;28;20052;-64
2023/01/21 09:06:19;;;;;;;53.03;29.13;;;;;;;;;;5031171;28;20470;-63
2023/01/21 09:08:45;;;;;;;51.88;31.95;;;;;;;;;;5030817;28;20080;-63
2023/01/21 09:11:11;;;;;;;53.35;29.15;;;;;;;;;;5030818;28;20389;-63
2023/01/21 09:13:37;;;;;;;48.75;28.05;;;;;;;;;;5030866;28;20053;-65
2023/01/21 09:16:08;;;;;;;42.65;24.63;;;;;;;;;;5030814;28;20424;-58
2023/01/21 09:18:34;;;;;;;51.00;26.52;;;;;;;;;;5030829;28;20370;-59
2023/01/21 09:21:01;;;;;;;42.20;23.63;;;;;;;;;;5029882;28;20436;-59
2023/01/21 09:23:27;;;;;;;46.28;25.40;;;;;;;;;;5031037;28;20033;-62
2023/01/21 09:25:55;;;;;;;42.33;24.80;;;;;;;;;;5030772;28;20097;-61
2023/01/21 09:28:22;;;;;;;43.83;23.10;;;;;;;;;;5030592;28;20026;-59
2023/01/21 09:30:48;;;;;;;40.90;23.48;;;;;;;;;;5031036;28;20260;-62
2023/01/21 09:33:14;;;;;;;42.35;23.15;;;;;;;;;;5031037;28;20021;-61
2023/01/21 09:35:40;;;;;;;39.33;22.48;;;;;;;;;;5031944;28;20041;-61
2023/01/21 09:38:07;;;;;;;40.78;22.02;;;;;;;;;;5034678;28;20033;-61
2023/01/21 09:40:33;;;;;;;38.38;21.98;;;;;;;;;;5034760;28;20048;-62
2023/01/21 09:43:02;;;;;;;43.45;23.63;;;;;;;;;;5034721;28;20022;-57
2023/01/21 09:45:28;;;;;;;38.67;23.70;;;;;;;;;;5034794;28;20037;-61
2023/01/21 09:47:55;;;;;;;38.65;21.15;;;;;;;;;;5034491;28;20025;-62
2023/01/21 09:50:22;;;;;;;39.28;22.20;;;;;;;;;;5034665;28;20032;-61
2023/01/21 09:52:50;;;;;;;40.25;21.83;;;;;;;;;;5034168;28;20025;-61
2023/01/21 09:55:16;;;;;;;;;;;;;;;;;;5034226;28;20537;-58
2023/01/21 09:58:01;;;;;;;44.63;21.85;;;;;;;;;;5033699;28;19911;-61
2023/01/21 10:00:40;;;;;;;40.55;21.50;;;;;;;;;;5032377;28;20056;-61
2023/01/21 10:03:17;;;;;;;42.90;22.08;;;;;;;;;;5033599;28;20438;-61
2023/01/21 10:05:52;;;;;;;39.78;22.00;;;;;;;;;;5033928;28;20056;-62
2023/01/21 10:08:21;;;;;;;39.70;21.23;;;;;;;;;;5032161;28;20107;-59
2023/01/21 10:11:06;;;;;;;40.35;20.63;;;;;;;;;;5033509;28;20053;-61
2023/01/21 10:13:32;;;;;;;38.42;20.70;;;;;;;;;;5032917;28;20022;-60
2023/01/21 10:16:07;;;;;;;37.63;23.20;;;;;;;;;;5032496;28;20040;-60
2023/01/21 10:18:36;;;;;;;40.17;23.88;;;;;;;;;;5033439;28;20025;-61
2023/01/21 10:21:20;;;;;;;42.13;23.05;;;;;;;;;;5033512;28;20032;-62
2023/01/21 10:23:51;;;;;;;39.22;21.98;;;;;;;;;;5033324;28;20022;-61
2023/01/21 10:26:17;;;;;;;41.22;21.45;;;;;;;;;;5031936;28;20034;-59
2023/01/21 10:28:46;;;;;;;37.53;20.65;;;;;;;;;;5033079;28;20109;-62
2023/01/21 10:31:19;;;;;;;39.95;22.25;;;;;;;;;;5033124;28;20478;-60
2023/01/21 10:33:45;;;;;;;40.13;22.63;;;;;;;;;;5032416;28;20027;-60
2023/01/21 10:36:20;;;;;;;44.92;23.85;;;;;;;;;;5033525;28;20104;-55
2023/01/21 10:38:46;;;;;;;35.78;20.67;;;;;;;;;;5032755;28;20057;-59
2023/01/21 10:41:19;;;;;;;37.25;20.25;;;;;;;;;;5033091;28;20064;-61
2023/01/21 10:44:03;;;;;;;40.38;22.63;;;;;;;;;;5032908;28;20490;-59
2023/01/21 10:46:41;;;;;;;34.78;21.55;;;;;;;;;;5033335;28;20433;-61
2023/01/21 10:49:22;;;;;;;39.30;20.75;;;;;;;;;;5032515;28;20421;-60
2023/01/21 10:51:55;;;;;;;35.40;20.52;;;;;;;;;;5032782;28;20493;-59
2023/01/21 10:54:34;;;;;;;35.40;20.75;;;;;;;;;;5032447;28;20025;-60
2023/01/21 10:57:09;;;;;;;36.05;19.85;;;;;;;;;;5032836;28;20018;-60
2023/01/21 10:59:36;;;;;;;39.70;20.52;;;;;;;;;;5031310;28;20084;-60
2023/01/21 11:02:23;;;;;;;38.07;21.07;;;;;;;;;;5032888;28;20021;-60
2023/01/21 11:04:49;;;;;;;32.85;19.20;;;;;;;;;;5025299;28;20120;-63
2023/01/21 11:07:17;;;;;;;33.88;19.73;;;;;;;;;;5032258;28;20079;-62
2023/01/21 11:09:45;;;;;;;37.67;20.33;;;;;;;;;;5032113;28;20505;-62
2023/01/21 11:12:18;;;;;;;37.08;21.25;;;;;;;;;;5031917;28;20109;-62
2023/01/21 11:14:50;;;;;;;36.38;20.90;;;;;;;;;;5031830;28;20428;-61
2023/01/21 11:17:29;;;;;;;35.25;19.65;;;;;;;;;;5031108;28;20045;-61
2023/01/21 11:20:03;;;;;;;39.88;21.90;;;;;;;;;;5032336;28;20030;-60
2023/01/21 11:22:31;;;;;;;35.00;19.50;;;;;;;;;;5032256;28;20382;-60
2023/01/21 11:24:57;;;;;;;36.55;19.95;;;;;;;;;;5031744;28;20202;-60
2023/01/21 11:27:34;;;;;;;39.22;21.83;;;;;;;;;;5032019;28;20543;-60
2023/01/21 11:30:01;;;;;;;34.70;20.13;;;;;;;;;;5032102;28;20033;-62
2023/01/21 11:32:28;;;;;;;37.17;21.90;;;;;;;;;;5032062;28;20151;-59
2023/01/21 11:35:01;;;;;;;40.22;21.65;;;;;;;;;;5031730;28;20033;-61
2023/01/21 11:37:28;;;;;;;37.28;20.70;;;;;;;;;;5031901;28;20032;-62
2023/01/21 11:39:55;;;;;;;36.92;21.20;;;;;;;;;;5031718;28;20512;-62
2023/01/21 11:42:22;;;;;;;37.03;22.35;;;;;;;;;;5030484;28;20470;-59
2023/01/21 11:44:52;;;;;;;41.90;23.25;;;;;;;;;;5031231;28;20099;-62
2023/01/21 11:47:30;;;;;;;35.60;20.92;;;;;;;;;;5031800;28;20535;-60
2023/01/21 11:50:01;;;;;;;36.28;21.27;;;;;;;;;;5031785;28;20082;-63
2023/01/21 11:52:28;;;;;;;40.63;21.95;;;;;;;;;;5031810;28;20037;-61
2023/01/21 11:54:53;;;;;;;34.45;20.55;;;;;;;;;;5031305;28;20025;-62
2023/01/21 11:57:27;;;;;;;38.42;22.52;;;;;;;;;;5031422;28;20493;-59
2023/01/21 11:59:55;;;;;;;40.50;22.35;;;;;;;;;;5030861;28;20045;-62
2023/01/21 12:02:28;;;;;;;41.22;23.83;;;;;;;;;;5031434;28;20033;-62
2023/01/21 12:04:56;;;;;;;39.33;23.50;;;;;;;;;;5031233;28;20021;-60
2023/01/21 12:07:25;;;;;;;39.20;22.35;;;;;;;;;;5030110;28;20096;-62
2023/01/21 12:10:10;;;;;;;39.15;22.80;;;;;;;;;;5030901;28;20069;-63
2023/01/21 12:12:39;;;;;;;38.08;21.25;;;;;;;;;;5030810;28;20117;-62
2023/01/21 12:15:12;;;;;;;39.63;23.90;;;;;;;;;;5030287;28;20022;-61
2023/01/21 12:17:41;;;;;;;39.53;22.17;;;;;;;;;;5029114;28;20029;-61
2023/01/21 12:20:22;;;;;;;40.72;22.40;;;;;;;;;;5028840;28;20025;-62
2023/01/21 12:22:51;;;;;;;38.40;21.08;;;;;;;;;;5030311;28;20030;-61
2023/01/21 12:25:28;;;;;;;38.53;21.75;;;;;;;;;;5029975;28;20040;-61
2023/01/21 12:28:12;;;;;;;37.35;23.58;;;;;;;;;;5029963;28;20616;-60
2023/01/21 12:30:48;;;;;;;38.00;21.73;;;;;;;;;;5030323;28;20029;-62
2023/01/21 12:33:34;;;;;;;37.33;22.58;;;;;;;;;;5030220;28;20097;-60
2023/01/21 12:36:10;;;;;;;50.78;25.88;;;;;;;;;;5036783;28;20539;-62
2023/01/21 12:38:42;;;;;;;37.85;21.45;;;;;;;;;;5033201;28;20077;-59
2023/01/21 12:41:15;;;;;;;38.08;21.30;;;;;;;;;;5030609;28;20041;-59
2023/01/21 12:43:45;;;;;;;40.25;22.75;;;;;;;;;;5030016;28;20022;-59
2023/01/21 12:46:14;;;;;;;42.40;24.15;;;;;;;;;;5030131;28;20108;-60
2023/01/21 12:48:43;;;;;;;35.85;21.45;;;;;;;;;;5029742;28;20038;-58
2023/01/21 12:51:11;;;;;;;39.00;21.80;;;;;;;;;;5030408;28;20120;-61
2023/01/21 12:53:46;;;;;;;40.70;23.10;;;;;;;;;;5029973;28;20021;-62
2023/01/21 12:56:27;;;;;;;36.20;21.90;;;;;;;;;;5030207;28;20073;-59
2023/01/21 12:58:59;;;;;;;37.17;20.88;;;;;;;;;;5030075;28;20648;-60
2023/01/21 13:01:31;;;;;;;41.70;23.08;;;;;;;;;;5030032;28;20120;-61
2023/01/21 13:04:16;;;;;;;36.80;22.90;;;;;;;;;;5029850;28;20029;-59
2023/01/21 13:07:05;;;;;;;38.33;21.75;;;;;;;;;;5029812;28;20774;-61
2023/01/21 13:09:51;;;;;;;38.88;22.15;;;;;;;;;;5029869;28;20096;-62
2023/01/21 13:12:23;;;;;;;43.30;23.27;;;;;;;;;;5011283;28;20041;-58
2023/01/21 13:14:59;;;;;;;35.78;20.65;;;;;;;;;;5033478;28;20449;-62
2023/01/21 13:17:29;;;;;;;42.15;25.92;;;;;;;;;;5033668;28;20464;-62
2023/01/21 13:19:55;;;;;;;41.42;23.75;;;;;;;;;;5033733;28;20026;-63
2023/01/21 13:22:40;;;;;;;43.05;22.38;;;;;;;;;;5033714;28;20033;-63
2023/01/21 13:25:09;;;;;;;39.85;22.10;;;;;;;;;;5033230;28;20108;-62
2023/01/21 13:27:42;;;;;;;40.08;22.35;;;;;;;;;;5033280;28;20036;-59
2023/01/21 13:30:18;;;;;;;36.00;21.23;;;;;;;;;;5033306;28;20024;-59
2023/01/21 13:32:44;;;;;;;36.33;20.52;;;;;;;;;;5033274;28;20056;-60
2023/01/21 13:35:29;;;;;;;39.15;21.67;;;;;;;;;;5033199;28;20060;-60
2023/01/21 13:37:58;;;;;;;36.67;19.80;;;;;;;;;;5031875;28;20455;-62
2023/01/21 13:40:43;;;;;;;37.22;19.00;;;;;;;;;;5033252;28;20032;-62
2023/01/21 13:43:25;;;;;;;36.30;19.45;;;;;;;;;;5033057;28;20022;-59
2023/01/21 13:46:01;;;;;;;34.92;19.63;;;;;;;;;;5032970;28;20402;-63
2023/01/21 13:48:30;;;;;;;32.50;18.83;;;;;;;;;;5033018;28;20107;-62
2023/01/21 13:51:19;;;;;;;33.08;18.88;;;;;;;;;;5033154;28;20373;-63
2023/01/21 13:53:52;;;;;;;34.67;18.23;;;;;;;;;;5026910;28;20486;-58
2023/01/21 13:56:36;;;;;;;36.42;21.27;;;;;;;;;;5032670;28;20026;-61
2023/01/21 13:59:05;;;;;;;33.70;18.75;;;;;;;;;;5031400;28;20029;-59
2023/01/21 14:01:31;;;;;;;33.00;17.85;;;;;;;;;;5031655;28;20022;-63
2023/01/21 14:04:04;;;;;;;34.83;18.00;;;;;;;;;;5032605;28;20053;-61
2023/01/21 14:06:48;;;;;;;35.00;17.95;;;;;;;;;;5032659;28;20082;-62
2023/01/21 14:09:20;;;;;;;30.15;18.35;;;;;;;;;;5032669;28;20128;-62
2023/01/21 14:12:00;;;;;;;32.72;18.50;;;;;;;;;;5027779;28;20022;-61
2023/01/21 14:14:33;;;;;;;31.50;17.63;;;;;;;;;;5030361;28;20021;-63
2023/01/21 14:17:02;;;;;;;32.17;18.27;;;;;;;;;;5011404;28;20032;-62
2023/01/21 14:19:47;;;;;;;32.00;18.50;;;;;;;;;;5019259;28;20391;-62
2023/01/21 14:22:16;;;;;;;32.83;18.27;;;;;;;;;;5029977;28;20029;-63
2023/01/21 14:24:54;;;;;;;30.15;15.82;;;;;;;;;;5032228;28;20680;-61
2023/01/21 14:27:45;;;;;;;29.45;16.85;;;;;;;;;;5032635;28;20018;-61
2023/01/21 14:30:25;;;;;;;30.17;17.88;;;;;;;;;;5031405;28;20053;-59
2023/01/21 14:33:02;;;;;;;31.15;18.55;;;;;;;;;;5031342;28;20436;-63
2023/01/21 14:35:46;;;;;;;28.17;16.30;;;;;;;;;;5033106;28;20052;-62
2023/01/21 14:38:31;;;;;;;32.60;17.10;;;;;;;;;;5031283;28;20073;-62